createdAt,value
2018-12-23T00:00:50.480Z,91.64
2018-12-23T00:03:20.900Z,91.54
2018-12-23T00:05:51.313Z,91.77
2018-12-23T00:08:21.748Z,91.95
2018-12-23T00:10:52.251Z,91.91
2018-12-23T00:13:22.678Z,91.54
2018-12-23T00:15:53.116Z,91.05
2018-12-23T00:18:23.560Z,91.08
2018-12-23T00:20:54.034Z,90.47
2018-12-23T00:23:24.441Z,90.55
2018-12-23T00:25:54.908Z,90.12
2018-12-23T00:28:25.318Z,90.80
2018-12-23T00:30:55.808Z,90.30
2018-12-23T00:33:27.423Z,90.28
2018-12-23T00:35:57.896Z,90.16
2018-12-23T00:38:28.362Z,90.87
2018-12-23T00:40:58.823Z,90.92
2018-12-23T00:43:29.290Z,90.49
2018-12-23T00:45:59.752Z,90.05
2018-12-23T00:48:30.230Z,90.16
2018-12-23T00:51:00.684Z,90.75
2018-12-23T00:53:31.146Z,90.91
2018-12-23T00:56:01.620Z,90.93
2018-12-23T00:58:32.104Z,90.54
2018-12-23T01:01:02.592Z,90.18
2018-12-23T01:03:33.048Z,89.95
2018-12-23T01:06:03.562Z,90.53
2018-12-23T01:08:34.028Z,90.67
2018-12-23T01:11:04.547Z,90.57
2018-12-23T01:13:35.050Z,90.40
2018-12-23T01:16:05.534Z,90.34
2018-12-23T01:18:36.175Z,90.37
2018-12-23T01:21:06.727Z,90.29
2018-12-23T01:23:37.435Z,90.21
2018-12-23T01:26:07.913Z,90.29
2018-12-23T01:28:38.488Z,89.88
2018-12-23T01:31:08.958Z,90.17
2018-12-23T01:33:39.443Z,90.10
2018-12-23T01:36:09.931Z,90.33
2018-12-23T01:38:40.792Z,89.96
2018-12-23T01:41:11.408Z,90.09
2018-12-23T01:43:41.881Z,90.42
2018-12-23T01:46:12.409Z,90.34
2018-12-23T01:48:42.905Z,89.90
2018-12-23T01:51:13.441Z,90.34
2018-12-23T01:53:44.107Z,90.47
2018-12-23T01:56:14.806Z,90.50
2018-12-23T01:58:45.322Z,90.48
2018-12-23T02:01:15.974Z,90.86
2018-12-23T02:03:46.622Z,90.42
2018-12-23T02:06:17.226Z,90.47
2018-12-23T02:08:47.789Z,90.97
2018-12-23T02:11:18.623Z,91.34
2018-12-23T02:13:49.137Z,91.19
2018-12-23T02:16:19.629Z,90.87
2018-12-23T02:18:50.110Z,90.80
2018-12-23T02:21:20.595Z,91.39
2018-12-23T02:23:51.054Z,90.98
2018-12-23T02:26:21.494Z,90.50
2018-12-23T02:28:52.098Z,90.83
2018-12-23T02:31:22.571Z,90.58
2018-12-23T02:33:53.037Z,90.05
2018-12-23T02:36:23.578Z,90.58
2018-12-23T02:38:53.981Z,90.75
2018-12-23T02:41:31.524Z,90.35
2018-12-23T02:43:56.913Z,90.51
2018-12-23T02:46:27.674Z,90.74
2018-12-23T02:48:58.201Z,90.40
2018-12-23T02:51:28.684Z,90.43
2018-12-23T02:53:59.107Z,90.62
2018-12-23T02:56:29.624Z,90.53
2018-12-23T02:59:00.095Z,90.85
2018-12-23T03:01:30.592Z,90.25
2018-12-23T03:04:01.058Z,89.98
2018-12-23T03:06:31.668Z,90.72
2018-12-23T03:09:02.151Z,90.87
2018-12-23T03:11:32.673Z,90.68
2018-12-23T03:14:03.163Z,91.07
2018-12-23T03:16:33.695Z,91.28
2018-12-23T03:19:04.179Z,91.08
2018-12-23T03:21:34.685Z,91.69
2018-12-23T03:24:05.195Z,91.48
2018-12-23T03:26:35.719Z,92.45
2018-12-23T03:29:08.129Z,91.76
2018-12-23T03:31:38.745Z,92.47
2018-12-23T03:34:09.293Z,92.64
2018-12-23T03:36:39.740Z,92.70
2018-12-23T03:39:10.334Z,92.68
2018-12-23T03:41:41.031Z,92.77
2018-12-23T03:44:11.484Z,93.21
2018-12-23T03:46:41.953Z,93.33
2018-12-23T03:49:12.459Z,93.75
2018-12-23T03:51:42.891Z,93.25
2018-12-23T03:54:13.408Z,92.93
2018-12-23T03:56:43.859Z,93.22
2018-12-23T03:59:14.347Z,94.27
2018-12-23T04:01:45.059Z,94.29
2018-12-23T04:04:15.545Z,94.24
2018-12-23T04:06:46.022Z,94.19
2018-12-23T04:09:16.534Z,93.63
2018-12-23T04:11:46.989Z,93.99
2018-12-23T04:14:17.468Z,93.83
2018-12-23T04:16:47.904Z,93.89
2018-12-23T04:19:18.472Z,94.33
2018-12-23T04:21:48.908Z,94.79
2018-12-23T04:24:19.424Z,94.78
2018-12-23T04:26:49.883Z,94.35
2018-12-23T04:29:20.475Z,94.35
2018-12-23T04:31:50.938Z,94.34
2018-12-23T04:34:21.439Z,94.20
2018-12-23T04:36:51.863Z,94.29
2018-12-23T04:39:22.732Z,94.94
2018-12-23T04:41:54.070Z,95.15
2018-12-23T04:44:24.727Z,95.20
2018-12-23T04:46:55.197Z,95.37
2018-12-23T04:49:25.695Z,95.21
2018-12-23T04:51:56.133Z,95.24
2018-12-23T04:54:26.628Z,95.08
2018-12-23T04:56:57.138Z,95.23
2018-12-23T04:59:27.771Z,94.86
2018-12-23T05:01:58.367Z,95.14
2018-12-23T05:04:28.883Z,95.20
2018-12-23T05:06:59.503Z,94.75
2018-12-23T05:09:29.979Z,94.87
2018-12-23T05:12:00.473Z,95.25
2018-12-23T05:14:30.911Z,94.97
2018-12-23T05:17:01.410Z,94.96
2018-12-23T05:19:31.848Z,95.04
2018-12-23T05:22:02.403Z,94.77
2018-12-23T05:24:32.918Z,94.66
2018-12-23T05:27:03.396Z,95.25
2018-12-23T05:29:33.875Z,94.97
2018-12-23T05:32:04.377Z,95.14
2018-12-23T05:34:34.844Z,94.99
2018-12-23T05:37:05.376Z,94.83
2018-12-23T05:39:35.893Z,94.75
2018-12-23T05:42:06.476Z,94.71
2018-12-23T05:44:36.958Z,95.35
2018-12-23T05:47:07.403Z,95.16
2018-12-23T05:49:37.990Z,94.93
2018-12-23T05:52:08.463Z,95.39
2018-12-23T05:54:38.962Z,95.38
2018-12-23T05:57:09.433Z,95.19
2018-12-23T05:59:39.914Z,94.74
2018-12-23T06:02:10.387Z,94.89
2018-12-23T06:04:40.886Z,95.15
2018-12-23T06:07:11.344Z,94.62
2018-12-23T06:09:41.809Z,94.68
2018-12-23T06:12:14.157Z,95.43
2018-12-23T06:14:44.592Z,95.25
2018-12-23T06:17:15.097Z,95.24
2018-12-23T06:19:45.552Z,94.09
2018-12-23T06:22:16.800Z,94.36
2018-12-23T06:24:47.288Z,94.24
2018-12-23T06:27:17.741Z,94.67
2018-12-23T06:29:48.213Z,94.69
2018-12-23T06:32:18.687Z,94.81
2018-12-23T06:34:49.160Z,94.73
2018-12-23T06:37:19.684Z,94.41
2018-12-23T06:39:50.176Z,93.67
2018-12-23T06:42:20.630Z,93.31
2018-12-23T06:44:51.149Z,94.28
2018-12-23T06:47:21.654Z,94.59
2018-12-23T06:49:52.135Z,94.66
2018-12-23T06:52:22.619Z,94.51
2018-12-23T06:54:53.082Z,94.69
2018-12-23T06:57:23.538Z,94.80
2018-12-23T06:59:54.027Z,94.79
2018-12-23T07:02:24.632Z,94.55
2018-12-23T07:04:55.186Z,94.43
2018-12-23T07:07:25.784Z,94.52
2018-12-23T07:09:56.330Z,94.74
2018-12-23T07:12:26.855Z,95.03
2018-12-23T07:14:59.581Z,94.46
2018-12-23T07:17:29.813Z,94.77
2018-12-23T07:20:02.345Z,94.70
2018-12-23T07:22:32.947Z,94.37
2018-12-23T07:25:03.568Z,94.69
2018-12-23T07:27:34.191Z,94.62
2018-12-23T07:30:05.070Z,94.63
2018-12-23T07:32:35.541Z,94.29
2018-12-23T07:35:06.211Z,93.92
2018-12-23T07:37:36.773Z,93.82
2018-12-23T07:40:07.417Z,94.26
2018-12-23T07:42:38.031Z,94.10
2018-12-23T07:45:08.505Z,94.44
2018-12-23T07:47:39.091Z,94.34
2018-12-23T07:50:09.511Z,94.07
2018-12-23T07:52:39.993Z,94.07
2018-12-23T07:55:10.406Z,93.96
2018-12-23T07:57:40.848Z,92.95
2018-12-23T08:00:11.754Z,92.80
2018-12-23T08:02:42.238Z,93.19
2018-12-23T08:05:12.748Z,93.78
2018-12-23T08:07:43.229Z,93.87
2018-12-23T08:10:14.384Z,93.74
2018-12-23T08:12:44.884Z,93.54
2018-12-23T08:15:15.471Z,93.40
2018-12-23T08:17:45.933Z,93.03
2018-12-23T08:20:16.442Z,93.00
2018-12-23T08:22:46.976Z,93.03
2018-12-23T08:25:17.609Z,92.28
2018-12-23T08:27:48.091Z,92.24
2018-12-23T08:30:18.592Z,92.63
2018-12-23T08:32:49.144Z,91.83
2018-12-23T08:35:19.707Z,91.66
2018-12-23T08:37:50.651Z,91.95
2018-12-23T08:40:21.146Z,92.20
2018-12-23T08:42:51.631Z,91.82
2018-12-23T08:45:22.156Z,91.15
2018-12-23T08:47:52.847Z,91.29
2018-12-23T08:50:23.333Z,91.61
2018-12-23T08:52:53.839Z,91.74
2018-12-23T08:55:24.318Z,91.64
2018-12-23T08:57:55.012Z,91.23
2018-12-23T09:00:25.643Z,91.65
2018-12-23T09:02:56.175Z,92.15
2018-12-23T09:05:26.883Z,91.61
2018-12-23T09:07:57.482Z,91.34
2018-12-23T09:10:28.037Z,90.45
2018-12-23T09:12:58.638Z,90.97
2018-12-23T09:15:29.526Z,90.27
2018-12-23T09:18:00.026Z,90.74
2018-12-23T09:20:31.090Z,90.80
2018-12-23T09:23:01.624Z,89.98
2018-12-23T09:25:32.082Z,89.78
2018-12-23T09:28:02.585Z,89.95
2018-12-23T09:30:33.027Z,89.69
2018-12-23T09:33:03.588Z,89.34
2018-12-23T09:35:34.111Z,89.77
2018-12-23T09:38:04.640Z,88.24
2018-12-23T09:40:35.115Z,88.79
2018-12-23T09:43:05.584Z,88.84
2018-12-23T09:45:36.140Z,88.64
2018-12-23T09:48:06.617Z,88.85
2018-12-23T09:50:37.277Z,88.46
2018-12-23T09:53:07.766Z,88.44
2018-12-23T09:55:38.326Z,88.73
2018-12-23T09:58:08.741Z,88.80
2018-12-23T10:00:39.415Z,88.94
2018-12-23T10:03:09.892Z,87.88
2018-12-23T10:05:40.484Z,87.81
2018-12-23T10:08:10.918Z,87.71
2018-12-23T10:10:41.375Z,87.64
2018-12-23T10:13:11.817Z,87.84
2018-12-23T10:15:42.339Z,87.84
2018-12-23T10:18:12.864Z,87.64
2018-12-23T10:20:43.357Z,87.87
2018-12-23T10:23:14.327Z,87.24
2018-12-23T10:25:44.842Z,87.38
2018-12-23T10:28:15.350Z,87.58
2018-12-23T10:30:45.895Z,88.00
2018-12-23T10:33:16.410Z,88.12
2018-12-23T10:35:46.918Z,88.04
2018-12-23T10:38:18.512Z,87.00
2018-12-23T10:40:49.312Z,86.84
2018-12-23T10:43:20.416Z,86.77
2018-12-23T10:45:51.024Z,86.98
2018-12-23T10:48:21.558Z,86.83
2018-12-23T10:50:52.087Z,87.24
2018-12-23T10:53:22.620Z,86.95
2018-12-23T10:55:53.072Z,87.15
2018-12-23T10:58:23.549Z,87.29
2018-12-23T11:00:53.995Z,86.71
2018-12-23T11:03:24.499Z,86.62
2018-12-23T11:05:55.055Z,87.42
2018-12-23T11:08:27.094Z,86.71
2018-12-23T11:10:57.947Z,87.00
2018-12-23T11:13:28.477Z,87.92
2018-12-23T11:15:59.005Z,88.46
2018-12-23T11:18:29.529Z,88.46
2018-12-23T11:21:00.003Z,88.74
2018-12-23T11:23:30.487Z,88.48
2018-12-23T11:26:00.972Z,89.00
2018-12-23T11:28:31.409Z,90.25
2018-12-23T11:31:01.895Z,89.87
2018-12-23T11:33:32.372Z,90.50
2018-12-23T11:36:02.824Z,91.24
2018-12-23T11:38:35.649Z,91.29
2018-12-23T11:41:05.778Z,91.92
2018-12-23T11:43:36.347Z,92.50
2018-12-23T11:46:06.794Z,93.69
2018-12-23T11:48:37.582Z,94.19
2018-12-23T11:51:08.043Z,95.05
2018-12-23T11:53:38.663Z,95.30
2018-12-23T11:56:09.088Z,95.21
2018-12-23T11:58:40.313Z,95.65
2018-12-23T12:01:10.835Z,95.92
2018-12-23T12:03:41.345Z,94.54
2018-12-23T12:06:11.869Z,94.46
2018-12-23T12:08:43.835Z,94.32
2018-12-23T12:11:14.618Z,95.12
2018-12-23T12:13:45.249Z,94.78
2018-12-23T12:16:15.723Z,94.18
2018-12-23T12:18:46.267Z,94.71
2018-12-23T12:21:17.898Z,93.61
2018-12-23T12:23:48.466Z,94.58
2018-12-23T12:26:18.891Z,94.97
2018-12-23T12:28:49.326Z,94.94
2018-12-23T12:32:23.272Z,94.96
2018-12-23T12:35:14.645Z,94.68
2018-12-23T12:38:18.177Z,94.76
2018-12-23T12:41:10.425Z,94.21
2018-12-23T12:43:53.844Z,93.40
2018-12-23T12:46:45.330Z,93.72
2018-12-23T12:49:29.186Z,93.59
2018-12-23T12:55:25.185Z,93.33
2018-12-23T12:58:16.607Z,93.75
2018-12-23T13:01:00.815Z,93.47
2018-12-23T13:03:45.321Z,93.82
2018-12-23T13:06:36.650Z,93.55
2018-12-23T13:09:20.594Z,93.60
2018-12-23T13:12:12.010Z,93.76
2018-12-23T13:14:55.949Z,94.43
2018-12-23T13:17:47.679Z,93.46
2018-12-23T13:20:31.376Z,93.54
2018-12-23T13:23:03.830Z,93.60
2018-12-23T13:25:47.437Z,92.83
2018-12-23T13:28:38.819Z,92.61
2018-12-23T13:31:22.619Z,92.92
2018-12-23T13:34:13.993Z,92.20
2018-12-23T13:36:57.663Z,92.76
2018-12-23T13:39:49.757Z,93.25
2018-12-23T13:42:39.794Z,92.95
2018-12-23T13:45:51.952Z,94.14
2018-12-23T13:48:54.674Z,93.52
2018-12-23T13:52:23.937Z,94.82
2018-12-23T13:55:15.534Z,95.31
2018-12-23T13:58:30.074Z,95.29
2018-12-23T14:01:59.270Z,94.68
2018-12-23T14:05:01.935Z,93.98
2018-12-23T14:08:31.115Z,95.18
2018-12-23T14:11:34.235Z,95.83
2018-12-23T14:14:25.706Z,94.55
2018-12-23T14:17:09.589Z,94.95
2018-12-23T14:20:01.007Z,94.78
2018-12-23T14:22:45.125Z,94.55
2018-12-23T14:25:36.543Z,94.25
2018-12-23T14:28:21.024Z,93.24
2018-12-23T14:31:12.436Z,93.71
2018-12-23T14:33:56.358Z,94.52
2018-12-23T14:36:47.779Z,93.40
2018-12-23T14:39:31.840Z,93.46
2018-12-23T14:42:23.263Z,93.83
2018-12-23T14:45:07.238Z,94.23
2018-12-23T14:47:58.647Z,94.86
2018-12-23T14:50:42.420Z,95.05
2018-12-23T14:53:33.814Z,94.24
2018-12-23T14:56:17.601Z,94.82
2018-12-23T14:59:09.019Z,95.71
2018-12-23T15:01:52.571Z,95.49
2018-12-23T15:04:36.132Z,96.28
2018-12-23T15:07:27.533Z,96.04
2018-12-23T15:10:11.881Z,96.21
2018-12-23T15:13:03.231Z,95.73
2018-12-23T15:15:47.351Z,96.69
2018-12-23T15:18:41.128Z,97.29
2018-12-23T15:21:25.393Z,97.63
2018-12-23T15:24:16.928Z,97.79
2018-12-23T15:27:08.294Z,97.34
2018-12-23T15:29:52.595Z,97.92
2018-12-23T15:32:43.974Z,97.86
2018-12-23T15:35:27.584Z,97.64
2018-12-23T15:38:18.977Z,96.50
2018-12-23T15:41:03.305Z,96.14
2018-12-23T15:43:54.715Z,96.09
2018-12-23T15:46:38.986Z,96.56
2018-12-23T15:49:30.393Z,96.89
2018-12-23T15:52:14.814Z,97.73
2018-12-23T15:54:58.992Z,98.04
2018-12-23T15:57:50.420Z,98.62
2018-12-23T16:00:34.723Z,99.27
2018-12-23T16:03:26.103Z,99.30
2018-12-23T16:06:10.688Z,98.43
2018-12-23T16:09:02.076Z,97.85
2018-12-23T16:11:45.675Z,98.41
2018-12-23T16:14:37.120Z,98.87
2018-12-23T16:17:21.627Z,99.55
2018-12-23T16:20:05.776Z,99.67
2018-12-23T16:22:57.177Z,99.67
2018-12-23T16:25:41.534Z,99.45
2018-12-23T16:28:32.956Z,99.38
2018-12-23T16:31:16.867Z,99.64
2018-12-23T16:34:08.316Z,100.00
2018-12-23T16:36:51.878Z,100.00
2018-12-23T16:39:43.291Z,100.00
2018-12-23T16:42:27.429Z,100.00
2018-12-23T16:45:18.821Z,100.00
2018-12-23T16:48:02.675Z,100.00
2018-12-23T16:50:46.463Z,100.00
2018-12-23T16:53:37.811Z,100.00
2018-12-23T16:56:21.919Z,100.00
2018-12-23T16:59:13.320Z,99.81
2018-12-23T17:01:56.940Z,99.75
2018-12-23T17:04:48.338Z,98.67
2018-12-23T17:07:32.724Z,98.81
2018-12-23T17:10:24.092Z,98.57
2018-12-23T17:13:08.202Z,99.18
2018-12-23T17:16:01.253Z,99.43
2018-12-23T17:18:45.120Z,100.00
2018-12-23T17:24:38.935Z,100.00
2018-12-23T17:27:30.333Z,99.97
2018-12-23T17:30:14.876Z,100.00
2018-12-23T17:33:06.363Z,100.00
2018-12-23T17:35:50.194Z,100.00
2018-12-23T17:38:41.594Z,100.00
2018-12-23T17:41:25.636Z,100.00
2018-12-23T17:44:17.041Z,100.00
2018-12-23T17:47:00.854Z,100.00
2018-12-23T17:49:52.283Z,100.00
2018-12-23T17:52:36.039Z,100.00
2018-12-23T17:55:27.435Z,100.00
2018-12-23T17:58:00.054Z,100.00
2018-12-23T18:00:51.479Z,100.00
2018-12-23T18:03:42.949Z,100.00
2018-12-23T18:06:27.071Z,100.00
2018-12-23T18:09:18.450Z,100.00
2018-12-23T18:12:02.493Z,100.00
2018-12-23T18:14:53.903Z,100.00
2018-12-23T18:17:38.407Z,100.00
2018-12-23T18:20:10.832Z,100.00
2018-12-23T18:23:02.206Z,100.00
2018-12-23T18:25:45.748Z,100.00
2018-12-23T18:28:37.276Z,100.00
2018-12-23T18:31:21.548Z,100.00
2018-12-23T18:34:12.923Z,100.00
2018-12-23T18:36:56.705Z,100.00
2018-12-23T18:39:48.128Z,100.00
2018-12-23T18:42:32.261Z,100.00
2018-12-23T18:45:23.667Z,100.00
2018-12-23T18:48:07.942Z,100.00
2018-12-23T18:50:59.378Z,100.00
2018-12-23T18:53:31.894Z,100.00
2018-12-23T18:56:45.737Z,100.00
2018-12-23T18:59:40.907Z,100.00
2018-12-23T19:02:44.076Z,100.00
2018-12-23T19:05:35.436Z,100.00
2018-12-23T19:08:21.845Z,100.00
2018-12-23T19:11:51.098Z,100.00
2018-12-23T19:15:00.396Z,100.00
2018-12-23T19:18:29.633Z,100.00
2018-12-23T19:21:32.878Z,100.00
2018-12-23T19:25:02.090Z,100.00
2018-12-23T19:28:05.574Z,100.00
2018-12-23T19:31:11.269Z,100.00
2018-12-23T19:34:40.483Z,100.00
2018-12-23T19:37:42.993Z,100.00
2018-12-23T19:41:12.210Z,100.00
2018-12-23T19:43:59.388Z,100.00
2018-12-23T19:47:18.987Z,100.00
2018-12-23T19:50:21.774Z,100.00
2018-12-23T19:53:51.067Z,100.00
2018-12-23T19:56:54.325Z,100.00
2018-12-23T20:00:23.572Z,99.23
2018-12-23T20:03:27.200Z,99.20
2018-12-23T20:06:31.301Z,98.55
2018-12-23T20:10:00.592Z,96.94
2018-12-23T20:13:02.883Z,97.08
2018-12-23T20:16:16.356Z,96.66
2018-12-23T20:19:25.302Z,96.52
2018-12-23T20:22:42.712Z,96.18
2018-12-23T20:25:51.735Z,95.94
2018-12-23T20:29:21.011Z,95.90
2018-12-23T20:32:23.775Z,95.89
2018-12-23T20:35:37.726Z,96.79
2018-12-23T20:38:40.876Z,96.87
2018-12-23T20:42:10.125Z,96.94
2018-12-23T20:45:12.894Z,97.32
2018-12-23T20:48:28.993Z,95.82
2018-12-23T20:51:31.386Z,96.07
2018-12-23T20:55:00.599Z,95.54
2018-12-23T20:57:53.012Z,95.44
2018-12-23T21:01:22.257Z,96.36
2018-12-23T21:04:25.048Z,96.49
2018-12-23T21:07:54.320Z,95.36
2018-12-23T21:11:03.505Z,95.68
2018-12-23T21:14:34.314Z,95.60
2018-12-23T21:17:35.809Z,95.94
2018-12-23T21:21:02.252Z,96.37
2018-12-23T21:24:31.491Z,95.67
2018-12-23T21:27:22.445Z,96.06
2018-12-23T21:30:51.686Z,96.14
2018-12-23T21:33:54.539Z,95.64
2018-12-23T21:37:17.709Z,95.86
2018-12-23T21:40:11.586Z,95.93
2018-12-23T21:43:40.807Z,96.85
2018-12-23T21:46:49.284Z,97.56
2018-12-23T21:50:18.519Z,97.03
2018-12-23T21:53:47.750Z,97.46
2018-12-23T21:56:52.438Z,97.69
2018-12-23T22:00:21.656Z,97.96
2018-12-23T22:03:24.747Z,97.96
2018-12-23T22:06:40.555Z,97.61
2018-12-23T22:09:43.468Z,98.24
2018-12-23T22:12:40.891Z,97.73
2018-12-23T22:15:32.269Z,97.92
2018-12-23T22:18:16.778Z,98.14
2018-12-23T22:21:08.213Z,97.36
2018-12-23T22:23:52.174Z,97.69
2018-12-23T22:26:43.496Z,97.65
2018-12-23T22:29:26.916Z,97.72
2018-12-23T22:32:11.220Z,97.84
2018-12-23T22:35:02.812Z,98.00
2018-12-23T22:37:45.952Z,97.96
2018-12-23T22:40:29.880Z,97.49
2018-12-23T22:43:21.265Z,97.58
2018-12-23T22:46:05.399Z,97.33
2018-12-23T22:48:56.945Z,96.45
2018-12-23T22:51:40.737Z,96.58
2018-12-23T22:54:32.108Z,96.59
2018-12-23T22:57:15.552Z,96.08
2018-12-23T23:03:11.272Z,95.90
2018-12-23T23:05:54.717Z,96.24
2018-12-23T23:08:38.233Z,96.87
2018-12-23T23:11:29.616Z,95.80
2018-12-23T23:14:13.942Z,94.83
2018-12-23T23:17:05.300Z,96.14
2018-12-23T23:19:49.285Z,95.66
2018-12-23T23:22:40.698Z,95.37
2018-12-23T23:25:32.094Z,96.03
2018-12-23T23:28:16.016Z,95.93
2018-12-23T23:31:07.488Z,95.68
2018-12-23T23:33:51.419Z,95.33
2018-12-23T23:36:42.799Z,94.58
2018-12-23T23:39:26.569Z,95.12
2018-12-23T23:42:10.317Z,95.62
2018-12-23T23:45:01.679Z,95.61
2018-12-23T23:47:45.653Z,95.42
2018-12-23T23:50:37.074Z,94.63
2018-12-23T23:53:20.644Z,95.09
2018-12-23T23:56:12.021Z,95.18
2018-12-23T23:58:55.966Z,94.99
